Map

Track Data

SID SEASON NUMBER BASIN SUBBASIN NAME ISO_TIME NATURE LAT LON WMO_WIND WMO_PRES WMO_AGENCY TRACK_TYPE DIST2LAND LANDFALL IFLAG USA_AGENCY USA_ATCF_ID USA_LAT USA_LON USA_RECORD USA_STATUS USA_WIND USA_PRES USA_SSHS USA_R34_NE USA_R34_SE USA_R34_SW USA_R34_NW USA_R50_NE USA_R50_SE USA_R50_SW USA_R50_NW USA_R64_NE USA_R64_SE USA_R64_SW USA_R64_NW USA_POCI USA_ROCI USA_RMW USA_EYE TOKYO_LAT TOKYO_LON TOKYO_GRADE TOKYO_WIND TOKYO_PRES TOKYO_R50_DIR TOKYO_R50_LONG TOKYO_R50_SHORT TOKYO_R30_DIR TOKYO_R30_LONG TOKYO_R30_SHORT TOKYO_LAND CMA_LAT CMA_LON CMA_CAT CMA_WIND CMA_PRES HKO_LAT HKO_LON HKO_CAT HKO_WIND HKO_PRES NEWDELHI_LAT NEWDELHI_LON NEWDELHI_GRADE NEWDELHI_WIND NEWDELHI_PRES NEWDELHI_CI NEWDELHI_DP NEWDELHI_POCI REUNION_LAT REUNION_LON REUNION_TYPE REUNION_WIND REUNION_PRES REUNION_TNUM REUNION_CI REUNION_RMW REUNION_R34_NE REUNION_R34_SE REUNION_R34_SW REUNION_R34_NW REUNION_R50_NE REUNION_R50_SE REUNION_R50_SW REUNION_R50_NW REUNION_R64_NE REUNION_R64_SE REUNION_R64_SW REUNION_R64_NW BOM_LAT BOM_LON BOM_TYPE BOM_WIND BOM_PRES BOM_TNUM BOM_CI BOM_RMW BOM_R34_NE BOM_R34_SE BOM_R34_SW BOM_R34_NW BOM_R50_NE BOM_R50_SE BOM_R50_SW BOM_R50_NW BOM_R64_NE BOM_R64_SE BOM_R64_SW BOM_R64_NW BOM_ROCI BOM_POCI BOM_EYE BOM_POS_METHOD BOM_PRES_METHOD NADI_LAT NADI_LON NADI_CAT NADI_WIND NADI_PRES WELLINGTON_LAT WELLINGTON_LON WELLINGTON_WIND WELLINGTON_PRES DS824_LAT DS824_LON DS824_STAGE DS824_WIND DS824_PRES TD9636_LAT TD9636_LON TD9636_STAGE TD9636_WIND TD9636_PRES TD9635_LAT TD9635_LON TD9635_WIND TD9635_PRES TD9635_ROCI NEUMANN_LAT NEUMANN_LON NEUMANN_CLASS NEUMANN_WIND NEUMANN_PRES MLC_LAT MLC_LON MLC_CLASS MLC_WIND MLC_PRES USA_GUST BOM_GUST BOM_GUST_PER REUNION_GUST REUNION_GUST_PER USA_SEAHGT USA_SEARAD_NE USA_SEARAD_SE USA_SEARAD_SW USA_SEARAD_NW STORM_SPEED STORM_DIR
1989284S08080 1990 112 SI MM NOT_NAMED 1989-10-11 00:00:00 TS -8.20000 79.7000 main 1583 1583 O___________O_ jtwc_sh SH041990 -8.20000 79.7000 20 -1 -8.20000 79.7000 TC 20 5 208
1989284S08080 1990 112 SI MM NOT_NAMED 1989-10-11 03:00:00 TS -8.40001 79.5925 main 1606 1606 P___________P_ SH041990 -8.40001 79.5925 22 -1 -8.40001 79.5925 TC 22 4 206
1989284S08080 1990 112 SI MM NOT_NAMED 1989-10-11 06:00:00 TS -8.60000 79.5000 main 1629 1629 O___________O_ jtwc_sh SH041990 -8.60000 79.5000 25 -1 -8.60000 79.5000 TC 25 4 201
1989284S08080 1990 112 SI MM NOT_NAMED 1989-10-11 09:00:00 TS -8.80000 79.4350 main 1652 1652 P___________P_ SH041990 -8.80000 79.4350 25 -1 -8.80000 79.4350 TC 25 4 193
1989284S08080 1990 112 SI MM NOT_NAMED 1989-10-11 12:00:00 TS -9.00000 79.4000 main 1674 1674 O___________O_ jtwc_sh SH041990 -9.00000 79.4000 25 -1 -9.00000 79.4000 TC 25 4 185
1989284S08080 1990 112 SI MM NOT_NAMED 1989-10-11 15:00:00 TS -9.20000 79.3925 main 1697 1697 P___________P_ SH041990 -9.20000 79.3925 25 -1 -9.20000 79.3925 TC 25 4 0
1989284S08080 1990 112 SI MM NOT_NAMED 1989-10-11 18:00:00 TS -9.40000 79.4000 main 1719 1719 O___________O_ jtwc_sh SH041990 -9.40000 79.4000 25 -1 -9.40000 79.4000 TC 25 4 0
1989284S08080 1990 112 SI MM NOT_NAMED 1989-10-11 21:00:00 TS -9.59250 79.4150 main 1741 1741 P___________P_ SH041990 -9.59250 79.4150 25 -1 -9.59250 79.4150 TC 25 4 0
1989284S08080 1990 112 SI MM NOT_NAMED 1989-10-12 00:00:00 TS -9.80000 79.4000 main 1764 1764 O___________O_ jtwc_sh SH041990 -9.80000 79.4000 25 -1 -9.80000 79.4000 TC 25 5 187
1989284S08080 1990 112 SI MM NOT_NAMED 1989-10-12 03:00:00 TS -10.0574 79.3525 main 1797 1797 P___________P_ SH041990 -10.0574 79.3525 27 -1 -10.0574 79.3525 TC 27 5 202
1989284S08080 1990 112 SI MM NOT_NAMED 1989-10-12 06:00:00 TS -10.3000 79.2000 main 1821 1821 O___________O_ jtwc_sh SH041990 -10.3000 79.2000 30 -1 -10.3000 79.2000 TC 30 6 227
1989284S08080 1990 112 SI MM NOT_NAMED 1989-10-12 09:00:00 TS -10.4801 78.8875 main 1847 1847 P___________P_ SH041990 -10.4801 78.8875 30 -1 -10.4801 78.8875 TC 30 8 246
1989284S08080 1990 112 SI MM NOT_NAMED 1989-10-12 12:00:00 TS -10.6000 78.5000 main 1863 1863 O___________O_ jtwc_sh SH041990 -10.6000 78.5000 30 -1 -10.6000 78.5000 TC 30 8 255
1989284S08080 1990 112 SI MM NOT_NAMED 1989-10-12 15:00:00 TS -10.6725 78.1350 main 1880 1880 P___________P_ SH041990 -10.6725 78.1350 30 -1 -10.6725 78.1350 TC 30 7 262
1989284S08080 1990 112 SI MM NOT_NAMED 1989-10-12 18:00:00 TS -10.7000 77.8000 main 1885 1885 O___________O_ jtwc_sh SH041990 -10.7000 77.8000 30 -1 -10.7000 77.8000 TC 30 6 267
1989284S08080 1990 112 SI MM NOT_NAMED 1989-10-12 21:00:00 TS -10.7000 77.5275 main 1891 1891 P___________P_ SH041990 -10.7000 77.5275 30 -1 -10.7000 77.5275 TC 30 5 270
1989284S08080 1990 112 SI MM NOT_NAMED 1989-10-13 00:00:00 TS -10.7000 77.3000 main 1895 1895 O___________O_ jtwc_sh SH041990 -10.7000 77.3000 30 -1 -10.7000 77.3000 TC 30 4 263
1989284S08080 1990 112 SI MM NOT_NAMED 1989-10-13 03:00:00 TS -10.7500 77.1000 main 1900 1900 P___________P_ SH041990 -10.7500 77.1000 30 -1 -10.7500 77.1000 TC 30 4 256
1989284S08080 1990 112 SI MM NOT_NAMED 1989-10-13 06:00:00 TS -10.8000 76.9000 main 1915 1915 O___________O_ jtwc_sh SH041990 -10.8000 76.9000 30 -1 -10.8000 76.9000 TC 30 4 263
1989284S08080 1990 112 SI MM NOT_NAMED 1989-10-13 09:00:00 TS -10.8000 76.6650 main 1920 1920 P___________P_ SH041990 -10.8000 76.6650 30 -1 -10.8000 76.6650 TC 30 5 270
1989284S08080 1990 112 SI MM NOT_NAMED 1989-10-13 12:00:00 TS -10.8000 76.4000 main 1928 1928 O___________O_ jtwc_sh SH041990 -10.8000 76.4000 30 -1 -10.8000 76.4000 TC 30 6 265
1989284S08080 1990 112 SI MM NOT_NAMED 1989-10-13 15:00:00 TS -10.8500 76.1000 main 1947 1947 P___________P_ SH041990 -10.8500 76.1000 30 -1 -10.8500 76.1000 TC 30 6 260
1989284S08080 1990 112 SI MM NOT_NAMED 1989-10-13 18:00:00 TS -10.9000 75.8000 main 1956 1956 O___________O_ jtwc_sh SH041990 -10.9000 75.8000 30 -1 -10.9000 75.8000 TC 30 6 263
1989284S08080 1990 112 SI MM NOT_NAMED 1989-10-13 21:00:00 TS -10.9225 75.5275 main 1965 1965 P___________P_ SH041990 -10.9225 75.5275 30 -1 -10.9225 75.5275 TC 30 5 270
1989284S08080 1990 112 SI MM NOT_NAMED 1989-10-14 00:00:00 TS -10.9000 75.3000 main 1971 1964 O___________O_ jtwc_sh SH041990 -10.9000 75.3000 30 -1 -10.9000 75.3000 TC 30 4 285
1989284S08080 1990 112 SI MM NOT_NAMED 1989-10-14 03:00:00 TS -10.8150 75.1275 main 1967 1960 P___________P_ SH041990 -10.8150 75.1275 30 -1 -10.8150 75.1275 TC 30 4 304
1989284S08080 1990 112 SI MM NOT_NAMED 1989-10-14 06:00:00 TS -10.7000 75.0000 main 1960 1953 O___________O_ jtwc_sh SH041990 -10.7000 75.0000 30 -1 -10.7000 75.0000 TC 30 3 314
1989284S08080 1990 112 SI MM NOT_NAMED 1989-10-14 09:00:00 TS -10.6075 74.9075 main 1953 1946 P___________P_ SH041990 -10.6075 74.9075 30 -1 -10.6075 74.9075 TC 30 3 315
1989284S08080 1990 112 SI MM NOT_NAMED 1989-10-14 12:00:00 TS -10.5000 74.8000 main 1946 1939 O___________O_ jtwc_sh SH041990 -10.5000 74.8000 30 -1 -10.5000 74.8000 TC 30 4 311
1989284S08080 1990 112 SI MM NOT_NAMED 1989-10-14 15:00:00 TS -10.3650 74.6225 main 1943 1925 P___________P_ SH041990 -10.3650 74.6225 30 -1 -10.3650 74.6225 TC 30 5 307
1989284S08080 1990 112 SI MM NOT_NAMED 1989-10-14 18:00:00 TS -10.2000 74.4000 main 1929 1916 O___________O_ jtwc_sh SH041990 -10.2000 74.4000 30 -1 -10.2000 74.4000 TC 30 6 309
1989284S08080 1990 112 SI MM NOT_NAMED 1989-10-14 21:00:00 TS -10.0000 74.1575 main 1916 1903 P___________P_ SH041990 -10.0000 74.1575 30 -1 -10.0000 74.1575 TC 30 6 309
1989284S08080 1990 112 SI MM NOT_NAMED 1989-10-15 00:00:00 TS -9.80000 73.9000 main 1907 1895 O___________O_ jtwc_sh SH041990 -9.80000 73.9000 30 -1 -9.80000 73.9000 TC 30 6 306
1989284S08080 1990 112 SI MM NOT_NAMED 1989-10-15 03:00:00 TS -9.63498 73.6500 main 1895 1893 P___________P_ SH041990 -9.63498 73.6500 30 -1 -9.63498 73.6500 TC 30 6 301
1989284S08080 1990 112 SI MM NOT_NAMED 1989-10-15 06:00:00 TS -9.50000 73.4000 main 1897 1892 O___________O_ jtwc_sh SH041990 -9.50000 73.4000 30 -1 -9.50000 73.4000 TC 30 6 294
1989284S08080 1990 112 SI MM NOT_NAMED 1989-10-15 09:00:00 TS -9.40750 73.1426 main 1901 1896 P___________P_ SH041990 -9.40750 73.1426 30 -1 -9.40750 73.1426 TC 30 5 292
1989284S08080 1990 112 SI MM NOT_NAMED 1989-10-15 12:00:00 TS -9.30000 72.9000 main 1900 1890 O___________O_ jtwc_sh SH041990 -9.30000 72.9000 30 -1 -9.30000 72.9000 TC 30 5 304
1989284S08080 1990 112 SI MM NOT_NAMED 1989-10-15 15:00:00 TS -9.11496 72.7000 main 1890 1880 P___________P_ SH041990 -9.11496 72.7000 30 -1 -9.11496 72.7000 TC 30 6 315
1989284S08080 1990 112 SI MM NOT_NAMED 1989-10-15 18:00:00 TS -8.90000 72.5000 main 1880 1871 O___________O_ jtwc_sh SH041990 -8.90000 72.5000 30 -1 -8.90000 72.5000 TC 30 6 316
1989284S08080 1990 112 SI MM NOT_NAMED 1989-10-15 21:00:00 TS -8.68496 72.2725 main 1871 1862 P___________P_ SH041990 -8.68496 72.2725 30 -1 -8.68496 72.2725 TC 30 6 309
1989284S08080 1990 112 SI MM NOT_NAMED 1989-10-16 00:00:00 TS -8.50000 72.0000 main 1867 1863 O___________O_ jtwc_sh SH041990 -8.50000 72.0000 30 -1 -8.50000 72.0000 TC 30 7 296
1989284S08080 1990 112 SI MM NOT_NAMED 1989-10-16 03:00:00 TS -8.39248 71.6726 main 1874 1874 P___________P_ SH041990 -8.39248 71.6726 30 -1 -8.39248 71.6726 TC 30 7 286
1989284S08080 1990 112 SI MM NOT_NAMED 1989-10-16 06:00:00 TS -8.30000 71.3000 main 1888 1888 O___________O_ jtwc_sh SH041990 -8.30000 71.3000 30 -1 -8.30000 71.3000 TC 30 8 286
1989284S08080 1990 112 SI MM NOT_NAMED 1989-10-16 09:00:00 TS -8.17248 70.9075 main 1902 1899 P___________P_ SH041990 -8.17248 70.9075 30 -1 -8.17248 70.9075 TC 30 8 291
1989284S08080 1990 112 SI MM NOT_NAMED 1989-10-16 12:00:00 TS -8.00000 70.5000 main 1909 1906 O___________O_ jtwc_sh SH041990 -8.00000 70.5000 30 -1 -8.00000 70.5000 TC 30 9 298
1989284S08080 1990 112 SI MM NOT_NAMED 1989-10-16 15:00:00 TS -7.74994 70.1075 main 1907 1905 P___________P_ SH041990 -7.74994 70.1075 30 -1 -7.74994 70.1075 TC 30 9 302
1989284S08080 1990 112 SI MM NOT_NAMED 1989-10-16 18:00:00 TS -7.50000 69.7000 main 1913 1893 O___________O_ jtwc_sh SH041990 -7.50000 69.7000 30 -1 -7.50000 69.7000 TC 30 9 296
1989284S08080 1990 112 SI MM NOT_NAMED 1989-10-16 21:00:00 TS -7.33498 69.2576 main 1901 1875 P___________P_ SH041990 -7.33498 69.2576 27 -1 -7.33498 69.2576 TC 27 9 289
1989284S08080 1990 112 SI MM NOT_NAMED 1989-10-17 00:00:00 TS -7.20000 68.8000 main 1875 1857 O___________O_ jtwc_sh SH041990 -7.20000 68.8000 25 -1 -7.20000 68.8000 TC 25 9 288
1989284S08080 1990 112 SI MM NOT_NAMED 1989-10-17 03:00:00 TS -7.04988 68.3725 main 1866 1842 P___________P_ SH041990 -7.04988 68.3725 25 -1 -7.04988 68.3725 TC 25 9 289
1989284S08080 1990 112 SI MM NOT_NAMED 1989-10-17 06:00:00 TS -6.90000 67.9000 main 1842 1820 O___________O_ jtwc_sh SH041990 -6.90000 67.9000 25 -1 -6.90000 67.9000 TC 25 11 286
1989284S08080 1990 112 SI MM NOT_NAMED 1989-10-17 09:00:00 TS -6.75022 67.3299 main 1813 1796 P___________P_ SH041990 -6.75022 67.3299 25 -1 -6.75022 67.3299 TC 25 12 284
1989284S08080 1990 112 SI MM NOT_NAMED 1989-10-17 12:00:00 TS -6.60000 66.7000 main 1796 O___________O_ jtwc_sh SH041990 -6.60000 66.7000 25 -1 -6.60000 66.7000 TC 25 13 284

About IBTrACS Database

This database is a web-friendly format of International Best Track Archive for Climate Stewardship (IBTrACS), a global best track data archive curated by NOAA dating back to 1842.

Updated: 2021-10-08